Ely Municipal Airport
KELO : now visible

Airfield :











YOU CAN JOIN US ON...

 
LOGIN :

Register | Disclaimer

   EN    FR    IT 

 









Legend :    VFR   Marginal VFR   IFR   Intensive IFR   Very Intensive IFR
Visi :
Ceiling :
>= 8 km
>= 3000ft
5 to 8 km
1000 to 3000 ft
1500m to 5 km
500 to 1000 ft
800 to 1500m
200 to 500 ft
< 800m
< 200 ft
Symbols :   Thunderstorms  Fog  Heavy snow  Heavy precipitations  Wind > 20 kt







- Airport Elevation : 1456 ft


KELO - Ely Municipal

CURRENT METAR :
  • 211836Z AUTO 11008KT 10SM SCT100 09/04 A3003 RMK AO2

EXPIRED METARs :
  • 211816Z AUTO 09005KT 10SM OVC090 09/04 A3003 RMK AO2
  • 211755Z AUTO 09007KT 10SM OVC090 09/04 A3002 RMK AO2
  • 211735Z AUTO 10006KT 10SM OVC090 09/04 A3001 RMK AO2
  • 211716Z AUTO 11003KT 10SM OVC090 10/05 A3002 RMK AO2
  • 211655Z AUTO 15003KT 10SM OVC090 09/04 A3001 RMK AO2
  • 211635Z AUTO 13007KT 10SM BKN090 10/05 A3001 RMK AO2
  • 211615Z AUTO 13004KT 10SM BKN090 09/06 A3000 RMK AO2
  • 211555Z AUTO 11006KT 10SM OVC080 09/06 A2998 RMK AO2

TAF N/A
KZMP FIR / North America



MET'MAP, your aeronautical weather chart ! - Copyright ORBIFLY December 2007 - Disclaimer

ORBIFLY MET'MAP TEAM :

Programming & Development : Alexandra Zaïnal
Concept & Development : Baudouin d'Aumeries
Co-Development & Prog : Marc-Olivier Méhu
Technical & hardware support : Manuel Goepfert

Contact : metmap@orbifly.com




SOURCES & CREDITS :

   NOAA       Earth
Advisory